Ashland, Wisconsin
Current Conditions -  °F | °C
As of 5:53 AM on Sunday 21 Dec 2014 (Local Time) from KASX Reporting Station
Overcast Overcast  
Wind Chill: -4°   Ceiling: 1500
Heat Index: -1°   Visibility: 10mi
Dew Point: -3°   Wind: 7mph
Humidity: 82%   Direction: 180°S
Pressure: 30.01"   Gusts: NA
Location:  46.59°N, 90.89°W
Report Text: KASX 211153Z AUTO 18006KT 10SM OVC015 M01/M03 A3001 RMK AO2 SLP173 T10061033 10000 21006 56018
Loading
Personal Weather Stations






























Interactive Weather Map New forecast layout! Learn more

10-Day Weather Forecast

Advertisements
Track Severe Weather on mobile